sensor_id;sensor_type;location;lat;lon;timestamp;pressure;altitude;pressure_sealevel;temperature;humidity
38786;BME280;24535;45.508;12.252;2023-02-14T00:00:40;103512.22;;;7.01;58.84
38786;BME280;24535;45.508;12.252;2023-02-14T00:03:06;103509.63;;;6.99;59.36
38786;BME280;24535;45.508;12.252;2023-02-14T00:05:31;103509.66;;;6.98;59.32
38786;BME280;24535;45.508;12.252;2023-02-14T00:07:57;103504.44;;;6.94;58.99
38786;BME280;24535;45.508;12.252;2023-02-14T00:10:22;103497.44;;;6.92;59.04
38786;BME280;24535;45.508;12.252;2023-02-14T00:12:48;103503.59;;;6.89;58.96
38786;BME280;24535;45.508;12.252;2023-02-14T00:15:13;103508.84;;;6.88;59.38
38786;BME280;24535;45.508;12.252;2023-02-14T00:17:52;103501.84;;;6.87;59.36
38786;BME280;24535;45.508;12.252;2023-02-14T00:20:22;103494.88;;;6.84;59.39
38786;BME280;24535;45.508;12.252;2023-02-14T00:22:49;103494.91;;;6.83;59.15
38786;BME280;24535;45.508;12.252;2023-02-14T00:25:16;103481.81;;;6.81;59.37
38786;BME280;24535;45.508;12.252;2023-02-14T00:27:42;103483.59;;;6.81;59.62
38786;BME280;24535;45.508;12.252;2023-02-14T00:30:09;103481.81;;;6.80;58.89
38786;BME280;24535;45.508;12.252;2023-02-14T00:32:39;103487.06;;;6.78;59.18
38786;BME280;24535;45.508;12.252;2023-02-14T00:35:05;103492.31;;;6.78;60.44
38786;BME280;24535;45.508;12.252;2023-02-14T00:37:31;103491.47;;;6.73;59.36
38786;BME280;24535;45.508;12.252;2023-02-14T00:39:57;103482.75;;;6.71;59.60
38786;BME280;24535;45.508;12.252;2023-02-14T00:42:22;103484.53;;;6.69;59.85
38786;BME280;24535;45.508;12.252;2023-02-14T00:44:48;103485.38;;;6.68;59.13
38786;BME280;24535;45.508;12.252;2023-02-14T00:47:13;103495.91;;;6.65;59.29
38786;BME280;24535;45.508;12.252;2023-02-14T00:49:39;103497.63;;;6.63;59.58
38786;BME280;24535;45.508;12.252;2023-02-14T00:52:04;103495.91;;;6.62;59.44
38786;BME280;24535;45.508;12.252;2023-02-14T00:54:30;103499.41;;;6.61;59.88
38786;BME280;24535;45.508;12.252;2023-02-14T00:56:55;103507.25;;;6.59;59.42
38786;BME280;24535;45.508;12.252;2023-02-14T00:59:20;103499.41;;;6.58;59.62
38786;BME280;24535;45.508;12.252;2023-02-14T01:01:46;103502.06;;;6.56;59.60
38786;BME280;24535;45.508;12.252;2023-02-14T01:04:11;103499.44;;;6.55;59.41
38786;BME280;24535;45.508;12.252;2023-02-14T01:06:37;103502.94;;;6.52;59.64
38786;BME280;24535;45.508;12.252;2023-02-14T01:09:02;103496.84;;;6.50;59.48
38786;BME280;24535;45.508;12.252;2023-02-14T01:11:28;103491.63;;;6.47;59.76
38786;BME280;24535;45.508;12.252;2023-02-14T01:13:55;103496.84;;;6.47;59.93
38786;BME280;24535;45.508;12.252;2023-02-14T01:16:22;103484.66;;;6.46;59.54
38786;BME280;24535;45.508;12.252;2023-02-14T01:18:48;103482.91;;;6.45;59.76
38786;BME280;24535;45.508;12.252;2023-02-14T01:21:25;103480.28;;;6.47;60.32
38786;BME280;24535;45.508;12.252;2023-02-14T01:23:53;103478.56;;;6.42;60.15
38786;BME280;24535;45.508;12.252;2023-02-14T01:26:20;103470.72;;;6.41;60.17
38786;BME280;24535;45.508;12.252;2023-02-14T01:28:46;103464.59;;;6.39;60.29
38786;BME280;24535;45.508;12.252;2023-02-14T01:31:16;103467.22;;;6.42;60.04
38786;BME280;24535;45.508;12.252;2023-02-14T01:33:43;103451.50;;;6.42;60.32
38786;BME280;24535;45.508;12.252;2023-02-14T01:36:19;103446.28;;;6.42;60.19
38786;BME280;24535;45.508;12.252;2023-02-14T01:38:45;103450.63;;;6.41;60.21
38786;BME280;24535;45.508;12.252;2023-02-14T01:41:11;103447.13;;;6.39;60.22
38786;BME280;24535;45.508;12.252;2023-02-14T01:43:57;103451.50;;;6.39;60.66
38786;BME280;24535;45.508;12.252;2023-02-14T01:46:25;103444.56;;;6.36;59.90
38786;BME280;24535;45.508;12.252;2023-02-14T01:48:53;103453.28;;;6.35;60.21
38786;BME280;24535;45.508;12.252;2023-02-14T01:51:20;103447.16;;;6.35;60.09
38786;BME280;24535;45.508;12.252;2023-02-14T01:53:46;103454.13;;;6.36;60.24
38786;BME280;24535;45.508;12.252;2023-02-14T01:56:18;103450.66;;;6.35;60.49
38786;BME280;24535;45.508;12.252;2023-02-14T01:58:46;103445.47;;;6.32;60.41
38786;BME280;24535;45.508;12.252;2023-02-14T02:01:15;103448.06;;;6.31;60.14
38786;BME280;24535;45.508;12.252;2023-02-14T02:03:53;103437.59;;;6.31;60.63
38786;BME280;24535;45.508;12.252;2023-02-14T02:06:33;103431.50;;;6.27;60.65
38786;BME280;24535;45.508;12.252;2023-02-14T02:09:24;103429.75;;;6.29;61.02
38786;BME280;24535;45.508;12.252;2023-02-14T02:11:52;103434.13;;;6.29;60.35
38786;BME280;24535;45.508;12.252;2023-02-14T02:14:20;103431.53;;;6.26;60.49
38786;BME280;24535;45.508;12.252;2023-02-14T02:44:16;103438.59;;;5.99;60.68
38786;BME280;24535;45.508;12.252;2023-02-14T02:55:26;103443.00;;;5.96;61.09
38786;BME280;24535;45.508;12.252;2023-02-14T02:57:54;103452.59;;;5.93;61.03
38786;BME280;24535;45.508;12.252;2023-02-14T03:00:21;103460.47;;;5.92;60.78
38786;BME280;24535;45.508;12.252;2023-02-14T03:02:50;103469.16;;;5.88;61.00
38786;BME280;24535;45.508;12.252;2023-02-14T03:05:37;103471.78;;;5.88;61.69
38786;BME280;24535;45.508;12.252;2023-02-14T03:08:03;103473.53;;;5.84;61.22
38786;BME280;24535;45.508;12.252;2023-02-14T03:10:31;103473.53;;;5.84;61.29
38786;BME280;24535;45.508;12.252;2023-02-14T03:24:01;103461.28;;;5.89;61.22
38786;BME280;24535;45.508;12.252;2023-02-14T03:26:58;103449.97;;;5.89;61.33
38786;BME280;24535;45.508;12.252;2023-02-14T03:29:44;103453.44;;;5.86;60.54
38786;BME280;24535;45.508;12.252;2023-02-14T03:32:35;103449.13;;;5.84;60.80
38786;BME280;24535;45.508;12.252;2023-02-14T03:35:09;103450.84;;;5.79;60.43
38786;BME280;24535;45.508;12.252;2023-02-14T03:37:40;103448.28;;;5.76;60.60
38786;BME280;24535;45.508;12.252;2023-02-14T03:40:33;103451.75;;;5.75;61.18
38786;BME280;24535;45.508;12.252;2023-02-14T03:43:07;103447.41;;;5.74;60.77
38786;BME280;24535;45.508;12.252;2023-02-14T03:45:39;103443.94;;;5.68;60.83
38786;BME280;24535;45.508;12.252;2023-02-14T03:48:10;103441.31;;;5.65;60.52
38786;BME280;24535;45.508;12.252;2023-02-14T03:50:38;103438.69;;;5.62;60.54
38786;BME280;24535;45.508;12.252;2023-02-14T03:53:07;103435.22;;;5.63;60.67
38786;BME280;24535;45.508;12.252;2023-02-14T03:55:46;103431.72;;;5.63;60.94
38786;BME280;24535;45.508;12.252;2023-02-14T03:58:19;103439.59;;;5.58;60.57
38786;BME280;24535;45.508;12.252;2023-02-14T04:00:49;103442.22;;;5.55;60.48
38786;BME280;24535;45.508;12.252;2023-02-14T04:03:17;103437.00;;;5.52;60.58
38786;BME280;24535;45.508;12.252;2023-02-14T04:05:44;103439.59;;;5.49;60.69
38786;BME280;24535;45.508;12.252;2023-02-14T04:08:11;103437.00;;;5.49;60.68
38786;BME280;24535;45.508;12.252;2023-02-14T04:10:44;103447.44;;;5.46;61.07
38786;BME280;24535;45.508;12.252;2023-02-14T04:13:10;103448.34;;;5.43;60.73
38786;BME280;24535;45.508;12.252;2023-02-14T04:15:35;103447.47;;;5.43;61.00
38786;BME280;24535;45.508;12.252;2023-02-14T04:18:00;103437.88;;;5.40;60.86
38786;BME280;24535;45.508;12.252;2023-02-14T04:20:44;103429.19;;;5.40;61.26
38786;BME280;24535;45.508;12.252;2023-02-14T04:23:09;103429.16;;;5.41;61.49
38786;BME280;24535;45.508;12.252;2023-02-14T04:25:35;103430.03;;;5.40;61.09
38786;BME280;24535;45.508;12.252;2023-02-14T04:28:03;103430.91;;;5.38;61.24
38786;BME280;24535;45.508;12.252;2023-02-14T04:30:29;103444.00;;;5.36;61.13
38786;BME280;24535;45.508;12.252;2023-02-14T04:32:54;103435.25;;;5.34;60.88
38786;BME280;24535;45.508;12.252;2023-02-14T04:35:19;103433.53;;;5.33;61.14
38786;BME280;24535;45.508;12.252;2023-02-14T04:37:45;103423.06;;;5.30;61.61
38786;BME280;24535;45.508;12.252;2023-02-14T04:40:11;103425.69;;;5.29;61.19
38786;BME280;24535;45.508;12.252;2023-02-14T04:42:40;103423.09;;;5.26;61.10
38786;BME280;24535;45.508;12.252;2023-02-14T04:45:06;103417.00;;;5.24;61.13
38786;BME280;24535;45.508;12.252;2023-02-14T04:47:31;103414.38;;;5.20;61.40
38786;BME280;24535;45.508;12.252;2023-02-14T04:49:57;103411.78;;;5.19;61.03
38786;BME280;24535;45.508;12.252;2023-02-14T04:52:22;103415.28;;;5.19;61.63
38786;BME280;24535;45.508;12.252;2023-02-14T04:54:48;103406.53;;;5.17;61.91
38786;BME280;24535;45.508;12.252;2023-02-14T04:57:13;103413.50;;;5.18;61.46
38786;BME280;24535;45.508;12.252;2023-02-14T04:59:38;103412.63;;;5.18;61.56
38786;BME280;24535;45.508;12.252;2023-02-14T05:02:04;103430.06;;;5.17;61.43
38786;BME280;24535;45.508;12.252;2023-02-14T05:04:29;103426.56;;;5.18;61.41
38786;BME280;24535;45.508;12.252;2023-02-14T05:06:55;103420.47;;;5.18;61.33
38786;BME280;24535;45.508;12.252;2023-02-14T05:09:20;103422.22;;;5.17;61.49
38786;BME280;24535;45.508;12.252;2023-02-14T05:11:45;103424.84;;;5.19;61.58
38786;BME280;24535;45.508;12.252;2023-02-14T05:14:11;103413.53;;;5.17;61.08
38786;BME280;24535;45.508;12.252;2023-02-14T05:16:37;103403.94;;;5.16;61.42
38786;BME280;24535;45.508;12.252;2023-02-14T05:19:03;103409.16;;;5.14;61.33
38786;BME280;24535;45.508;12.252;2023-02-14T05:21:29;103408.28;;;5.14;61.38
38786;BME280;24535;45.508;12.252;2023-02-14T05:24:00;103416.13;;;5.17;61.64
38786;BME280;24535;45.508;12.252;2023-02-14T05:26:26;103412.63;;;5.18;61.50
38786;BME280;24535;45.508;12.252;2023-02-14T05:28:51;103404.81;;;5.16;61.03
38786;BME280;24535;45.508;12.252;2023-02-14T05:31:17;103406.53;;;5.14;61.03
38786;BME280;24535;45.508;12.252;2023-02-14T05:33:42;103399.59;;;5.13;61.48
38786;BME280;24535;45.508;12.252;2023-02-14T05:36:09;103405.69;;;5.15;61.39
38786;BME280;24535;45.508;12.252;2023-02-14T05:38:35;103408.31;;;5.15;61.30
38786;BME280;24535;45.508;12.252;2023-02-14T05:41:01;103418.75;;;5.15;61.23
38786;BME280;24535;45.508;12.252;2023-02-14T05:43:26;103418.75;;;5.15;61.26
38786;BME280;24535;45.508;12.252;2023-02-14T05:45:52;103421.38;;;5.15;61.03
38786;BME280;24535;45.508;12.252;2023-02-14T05:48:18;103414.41;;;5.11;61.02
38786;BME280;24535;45.508;12.252;2023-02-14T05:50:44;103418.75;;;5.11;61.28
38786;BME280;24535;45.508;12.252;2023-02-14T05:53:10;103404.81;;;5.10;61.40
38786;BME280;24535;45.508;12.252;2023-02-14T05:55:36;103412.66;;;5.09;61.38
38786;BME280;24535;45.508;12.252;2023-02-14T05:58:01;103420.50;;;5.07;61.47
38786;BME280;24535;45.508;12.252;2023-02-14T06:00:27;103415.28;;;5.04;61.43
38786;BME280;24535;45.508;12.252;2023-02-14T06:02:53;103406.56;;;5.04;61.46
38786;BME280;24535;45.508;12.252;2023-02-14T06:05:18;103417.00;;;5.01;61.15
38786;BME280;24535;45.508;12.252;2023-02-14T06:07:46;103422.25;;;4.99;61.46
38786;BME280;24535;45.508;12.252;2023-02-14T06:10:24;103417.00;;;4.97;61.13
38786;BME280;24535;45.508;12.252;2023-02-14T06:12:51;103423.13;;;4.96;61.19
38786;BME280;24535;45.508;12.252;2023-02-14T06:15:17;103429.19;;;4.94;61.56
38786;BME280;24535;45.508;12.252;2023-02-14T06:17:42;103423.97;;;4.94;61.67
38786;BME280;24535;45.508;12.252;2023-02-14T06:20:09;103432.69;;;4.93;61.56
38786;BME280;24535;45.508;12.252;2023-02-14T06:22:36;103424.84;;;4.91;61.55
38786;BME280;24535;45.508;12.252;2023-02-14T06:25:05;103424.00;;;4.91;61.63
38786;BME280;24535;45.508;12.252;2023-02-14T06:27:31;103425.72;;;4.92;61.40
38786;BME280;24535;45.508;12.252;2023-02-14T06:29:57;103437.03;;;4.92;61.65
38786;BME280;24535;45.508;12.252;2023-02-14T06:32:23;103430.94;;;4.92;61.86
38786;BME280;24535;45.508;12.252;2023-02-14T06:34:48;103434.44;;;4.92;61.70
38786;BME280;24535;45.508;12.252;2023-02-14T06:37:13;103440.53;;;4.93;61.50
38786;BME280;24535;45.508;12.252;2023-02-14T06:39:39;103444.00;;;4.93;61.45
38786;BME280;24535;45.508;12.252;2023-02-14T06:42:05;103444.88;;;4.92;61.58
38786;BME280;24535;45.508;12.252;2023-02-14T06:44:30;103446.63;;;4.95;61.63
38786;BME280;24535;45.508;12.252;2023-02-14T06:46:55;103445.75;;;4.94;61.83
38786;BME280;24535;45.508;12.252;2023-02-14T06:49:21;103452.72;;;4.95;61.66
38786;BME280;24535;45.508;12.252;2023-02-14T06:51:48;103457.94;;;4.95;61.52
38786;BME280;24535;45.508;12.252;2023-02-14T06:54:13;103465.78;;;4.97;61.93
38786;BME280;24535;45.508;12.252;2023-02-14T06:56:39;103457.94;;;5.02;62.02
38786;BME280;24535;45.508;12.252;2023-02-14T06:59:04;103457.06;;;5.04;61.83
38786;BME280;24535;45.508;12.252;2023-02-14T07:01:30;103457.06;;;5.09;62.54
38786;BME280;24535;45.508;12.252;2023-02-14T07:03:56;103458.81;;;5.11;62.09
38786;BME280;24535;45.508;12.252;2023-02-14T07:06:21;103456.19;;;5.14;62.27
38786;BME280;24535;45.508;12.252;2023-02-14T07:08:46;103464.91;;;5.16;62.12
38786;BME280;24535;45.508;12.252;2023-02-14T07:11:12;103463.16;;;5.20;62.35
38786;BME280;24535;45.508;12.252;2023-02-14T07:13:37;103472.75;;;5.23;62.30
38786;BME280;24535;45.508;12.252;2023-02-14T07:16:03;103470.13;;;5.24;62.03
38786;BME280;24535;45.508;12.252;2023-02-14T07:18:28;103470.13;;;5.29;62.21
38786;BME280;24535;45.508;12.252;2023-02-14T07:20:54;103470.13;;;5.32;62.40
38786;BME280;24535;45.508;12.252;2023-02-14T07:23:19;103470.13;;;5.36;62.35
38786;BME280;24535;45.508;12.252;2023-02-14T07:25:44;103463.16;;;5.40;62.53
38786;BME280;24535;45.508;12.252;2023-02-14T07:28:13;103463.13;;;5.46;62.99
38786;BME280;24535;45.508;12.252;2023-02-14T07:30:38;103464.88;;;5.52;62.69
38786;BME280;24535;45.508;12.252;2023-02-14T07:33:04;103456.16;;;5.57;62.71
38786;BME280;24535;45.508;12.252;2023-02-14T07:35:29;103455.28;;;5.64;62.75
38786;BME280;24535;45.508;12.252;2023-02-14T07:37:54;103460.47;;;5.70;62.84
38786;BME280;24535;45.508;12.252;2023-02-14T07:40:20;103460.44;;;5.78;63.00
38786;BME280;24535;45.508;12.252;2023-02-14T07:42:53;103452.59;;;5.86;63.20
38786;BME280;24535;45.508;12.252;2023-02-14T07:45:20;103456.09;;;5.92;63.14
38786;BME280;24535;45.508;12.252;2023-02-14T07:47:50;103453.47;;;6.00;62.80
38786;BME280;24535;45.508;12.252;2023-02-14T07:50:16;103457.78;;;6.09;62.92
38786;BME280;24535;45.508;12.252;2023-02-14T07:52:41;103457.72;;;6.15;62.71
38786;BME280;24535;45.508;12.252;2023-02-14T07:55:07;103459.47;;;6.22;62.57
38786;BME280;24535;45.508;12.252;2023-02-14T07:57:33;103458.56;;;6.29;62.59
38786;BME280;24535;45.508;12.252;2023-02-14T07:59:58;103452.41;;;6.38;62.28
38786;BME280;24535;45.508;12.252;2023-02-14T08:02:24;103440.13;;;6.46;62.29
38786;BME280;24535;45.508;12.252;2023-02-14T08:04:49;103441.84;;;6.52;62.18
38786;BME280;24535;45.508;12.252;2023-02-14T08:07:15;103433.94;;;6.61;61.73
38786;BME280;24535;45.508;12.252;2023-02-14T08:09:40;103440.88;;;6.69;62.02
38786;BME280;24535;45.508;12.252;2023-02-14T08:12:06;103430.31;;;6.79;61.64
38786;BME280;24535;45.508;12.252;2023-02-14T08:14:49;103441.56;;;6.88;61.64
38786;BME280;24535;45.508;12.252;2023-02-14T08:17:20;103432.78;;;6.96;61.56
38786;BME280;24535;45.508;12.252;2023-02-14T08:19:46;103437.13;;;7.01;61.65
38786;BME280;24535;45.508;12.252;2023-02-14T08:22:11;103436.19;;;7.08;61.63
38786;BME280;24535;45.508;12.252;2023-02-14T08:24:37;103437.84;;;7.17;61.27
38786;BME280;24535;45.508;12.252;2023-02-14T08:27:02;103430.75;;;7.28;61.60
38786;BME280;24535;45.508;12.252;2023-02-14T08:29:28;103427.09;;;7.46;61.60
38786;BME280;24535;45.508;12.252;2023-02-14T08:31:53;103429.50;;;7.64;61.63
38786;BME280;24535;45.508;12.252;2023-02-14T08:34:19;103424.94;;;7.82;61.40
38786;BME280;24535;45.508;12.252;2023-02-14T08:36:44;103418.66;;;7.95;60.40
38786;BME280;24535;45.508;12.252;2023-02-14T08:39:11;103417.63;;;8.05;60.52
38786;BME280;24535;45.508;12.252;2023-02-14T08:41:37;103422.78;;;8.13;60.05
38786;BME280;24535;45.508;12.252;2023-02-14T08:44:03;103418.31;;;8.23;59.63
38786;BME280;24535;45.508;12.252;2023-02-14T08:46:28;103419.00;;;8.34;59.63
38786;BME280;24535;45.508;12.252;2023-02-14T08:48:54;103419.75;;;8.45;59.81
38786;BME280;24535;45.508;12.252;2023-02-14T08:51:20;103410.75;;;8.61;60.54
38786;BME280;24535;45.508;12.252;2023-02-14T08:53:49;103411.19;;;8.89;60.91
38786;BME280;24535;45.508;12.252;2023-02-14T08:56:14;103408.03;;;9.19;60.58
38786;BME280;24535;45.508;12.252;2023-02-14T08:58:40;103414.53;;;9.47;59.86
38786;BME280;24535;45.508;12.252;2023-02-14T09:01:16;103407.06;;;9.71;58.38
38786;BME280;24535;45.508;12.252;2023-02-14T09:03:42;103398.78;;;9.89;58.95
38786;BME280;24535;45.508;12.252;2023-02-14T09:06:10;103398.44;;;10.06;57.90
38786;BME280;24535;45.508;12.252;2023-02-14T09:08:38;103401.66;;;10.19;58.24
38786;BME280;24535;45.508;12.252;2023-02-14T09:11:14;103397.94;;;10.29;57.42
38786;BME280;24535;45.508;12.252;2023-02-14T09:13:41;103396.09;;;10.32;57.23
38786;BME280;24535;45.508;12.252;2023-02-14T09:16:08;103401.34;;;10.34;57.02
38786;BME280;24535;45.508;12.252;2023-02-14T09:18:34;103398.66;;;10.35;57.39
38786;BME280;24535;45.508;12.252;2023-02-14T09:21:00;103395.91;;;10.42;57.79
38786;BME280;24535;45.508;12.252;2023-02-14T09:23:26;103393.91;;;10.51;57.06
38786;BME280;24535;45.508;12.252;2023-02-14T09:25:59;103388.28;;;10.67;57.08
38786;BME280;24535;45.508;12.252;2023-02-14T09:28:24;103382.66;;;10.80;57.00
38786;BME280;24535;45.508;12.252;2023-02-14T09:30:50;103380.50;;;10.96;56.95
38786;BME280;24535;45.508;12.252;2023-02-14T09:33:15;103379.19;;;11.12;55.90
38786;BME280;24535;45.508;12.252;2023-02-14T09:35:41;103372.72;;;11.24;55.09
38786;BME280;24535;45.508;12.252;2023-02-14T09:38:08;103375.06;;;11.35;54.62
38786;BME280;24535;45.508;12.252;2023-02-14T09:40:44;103370.53;;;11.40;53.99
38786;BME280;24535;45.508;12.252;2023-02-14T09:43:28;103367.75;;;11.45;52.89
38786;BME280;24535;45.508;12.252;2023-02-14T09:45:57;103365.03;;;11.48;53.00
38786;BME280;24535;45.508;12.252;2023-02-14T09:50:58;103356.19;;;11.49;52.32
38786;BME280;24535;45.508;12.252;2023-02-14T09:53:27;103370.31;;;11.48;52.41
38786;BME280;24535;45.508;12.252;2023-02-14T09:56:04;103365.75;;;11.53;52.34
38786;BME280;24535;45.508;12.252;2023-02-14T09:58:37;103362.84;;;11.62;52.90
38786;BME280;24535;45.508;12.252;2023-02-14T10:01:25;103367.88;;;11.71;51.33
38786;BME280;24535;45.508;12.252;2023-02-14T10:09:15;103357.56;;;11.93;52.18
38786;BME280;24535;45.508;12.252;2023-02-14T10:11:45;103348.63;;;11.97;51.55
38786;BME280;24535;45.508;12.252;2023-02-14T10:14:20;103343.19;;;12.02;51.57
38786;BME280;24535;45.508;12.252;2023-02-14T10:19:25;103349.25;;;12.05;50.79
38786;BME280;24535;45.508;12.252;2023-02-14T10:21:53;103349.09;;;12.10;51.99
38786;BME280;24535;45.508;12.252;2023-02-14T10:24:57;103343.50;;;12.21;50.27
38786;BME280;24535;45.508;12.252;2023-02-14T10:27:48;103334.25;;;12.34;50.52
38786;BME280;24535;45.508;12.252;2023-02-14T10:30:20;103323.25;;;12.48;51.89
38786;BME280;24535;45.508;12.252;2023-02-14T10:32:49;103312.25;;;12.60;51.17
38786;BME280;24535;45.508;12.252;2023-02-14T10:35:43;103317.84;;;12.76;49.50
38786;BME280;24535;45.508;12.252;2023-02-14T10:46:18;103291.19;;;13.07;47.71
38786;BME280;24535;45.508;12.252;2023-02-14T10:51:41;103285.78;;;13.10;47.02
38786;BME280;24535;45.508;12.252;2023-02-14T10:54:19;103284.94;;;13.09;48.29
38786;BME280;24535;45.508;12.252;2023-02-14T10:57:01;103275.41;;;13.04;47.67
38786;BME280;24535;45.508;12.252;2023-02-14T10:59:51;103275.56;;;13.01;47.88
38786;BME280;24535;45.508;12.252;2023-02-14T11:02:23;103269.53;;;12.96;47.84
38786;BME280;24535;45.508;12.252;2023-02-14T11:04:50;103263.66;;;12.87;47.96
38786;BME280;24535;45.508;12.252;2023-02-14T11:07:19;103263.91;;;12.81;47.46
38786;BME280;24535;45.508;12.252;2023-02-14T11:09:46;103263.13;;;12.78;48.17
38786;BME280;24535;45.508;12.252;2023-02-14T11:12:11;103257.16;;;12.73;47.50
38786;BME280;24535;45.508;12.252;2023-02-14T11:14:38;103252.13;;;12.65;48.04
38786;BME280;24535;45.508;12.252;2023-02-14T11:17:28;103260.22;;;12.60;47.44
38786;BME280;24535;45.508;12.252;2023-02-14T11:20:04;103253.31;;;12.56;47.65
38786;BME280;24535;45.508;12.252;2023-02-14T11:22:44;103248.22;;;12.50;48.66
38786;BME280;24535;45.508;12.252;2023-02-14T11:25:25;103250.97;;;12.47;47.97
38786;BME280;24535;45.508;12.252;2023-02-14T11:28:04;103245.91;;;12.41;49.06
38786;BME280;24535;45.508;12.252;2023-02-14T11:30:37;103239.78;;;12.39;48.95
38786;BME280;24535;45.508;12.252;2023-02-14T11:33:08;103235.53;;;12.35;49.26
38786;BME280;24535;45.508;12.252;2023-02-14T11:35:36;103233.81;;;12.34;49.45
38786;BME280;24535;45.508;12.252;2023-02-14T11:38:05;103231.22;;;12.32;49.04
38786;BME280;24535;45.508;12.252;2023-02-14T11:40:32;103222.44;;;12.32;49.64
38786;BME280;24535;45.508;12.252;2023-02-14T11:43:00;103224.16;;;12.33;49.10
38786;BME280;24535;45.508;12.252;2023-02-14T11:45:34;103217.03;;;12.35;49.13
38786;BME280;24535;45.508;12.252;2023-02-14T11:50:35;103208.34;;;12.31;49.22
38786;BME280;24535;45.508;12.252;2023-02-14T11:53:01;103207.47;;;12.31;49.27
38786;BME280;24535;45.508;12.252;2023-02-14T11:55:29;103210.19;;;12.29;49.27
38786;BME280;24535;45.508;12.252;2023-02-14T11:57:58;103195.25;;;12.28;48.82
38786;BME280;24535;45.508;12.252;2023-02-14T12:00:28;103192.63;;;12.27;49.23
38786;BME280;24535;45.508;12.252;2023-02-14T12:02:58;103193.56;;;12.26;49.53
38786;BME280;24535;45.508;12.252;2023-02-14T12:05:36;103183.94;;;12.23;49.86
38786;BME280;24535;45.508;12.252;2023-02-14T12:08:09;103183.06;;;12.24;49.69
38786;BME280;24535;45.508;12.252;2023-02-14T12:10:36;103184.84;;;12.24;49.81
38786;BME280;24535;45.508;12.252;2023-02-14T12:13:06;103178.53;;;12.28;49.98
38786;BME280;24535;45.508;12.252;2023-02-14T12:20:59;103159.72;;;12.35;49.24
38786;BME280;24535;45.508;12.252;2023-02-14T12:23:32;103160.63;;;12.36;50.16
38786;BME280;24535;45.508;12.252;2023-02-14T12:28:51;103157.16;;;12.34;48.88
38786;BME280;24535;45.508;12.252;2023-02-14T12:31:21;103143.19;;;12.30;49.36
38786;BME280;24535;45.508;12.252;2023-02-14T12:33:46;103144.13;;;12.29;48.83
38786;BME280;24535;45.508;12.252;2023-02-14T12:36:17;103136.25;;;12.28;49.32
38786;BME280;24535;45.508;12.252;2023-02-14T12:39:04;103143.28;;;12.27;49.19
38786;BME280;24535;45.508;12.252;2023-02-14T12:44:52;103130.38;;;12.20;49.92
38786;BME280;24535;45.508;12.252;2023-02-14T13:09:10;103102.44;;;12.12;51.23
38786;BME280;24535;45.508;12.252;2023-02-14T13:22:29;103093.66;;;12.12;51.55
38786;BME280;24535;45.508;12.252;2023-02-14T13:24:58;103087.38;;;12.15;51.45
38786;BME280;24535;45.508;12.252;2023-02-14T13:27:30;103079.41;;;12.16;51.94
38786;BME280;24535;45.508;12.252;2023-02-14T13:30:12;103078.41;;;12.19;51.51
38786;BME280;24535;45.508;12.252;2023-02-14T13:32:42;103074.88;;;12.20;52.24
38786;BME280;24535;45.508;12.252;2023-02-14T13:35:16;103078.22;;;12.25;53.16
38786;BME280;24535;45.508;12.252;2023-02-14T13:37:50;103064.81;;;12.29;53.30
38786;BME280;24535;45.508;12.252;2023-02-14T13:40:22;103062.94;;;12.33;52.07
38786;BME280;24535;45.508;12.252;2023-02-14T13:42:52;103062.88;;;12.34;51.65
38786;BME280;24535;45.508;12.252;2023-02-14T13:48:05;103054.84;;;12.37;51.74
38786;BME280;24535;45.508;12.252;2023-02-14T13:53:37;103051.16;;;12.42;53.10
38786;BME280;24535;45.508;12.252;2023-02-14T13:58:59;103048.28;;;12.48;52.36
38786;BME280;24535;45.508;12.252;2023-02-14T14:15:10;103032.72;;;12.40;52.27
38786;BME280;24535;45.508;12.252;2023-02-14T14:22:54;103039.03;;;12.36;53.19
38786;BME280;24535;45.508;12.252;2023-02-14T14:27:59;103026.63;;;12.38;53.49
38786;BME280;24535;45.508;12.252;2023-02-14T14:30:29;103027.44;;;12.40;54.19
38786;BME280;24535;45.508;12.252;2023-02-14T14:33:13;103030.88;;;12.42;54.30
38786;BME280;24535;45.508;12.252;2023-02-14T14:35:38;103023.75;;;12.44;54.47
38786;BME280;24535;45.508;12.252;2023-02-14T14:38:04;103023.56;;;12.49;54.11
38786;BME280;24535;45.508;12.252;2023-02-14T14:40:32;103014.63;;;12.51;54.48
38786;BME280;24535;45.508;12.252;2023-02-14T14:43:25;103014.59;;;12.53;53.72
38786;BME280;24535;45.508;12.252;2023-02-14T14:45:52;103013.56;;;12.57;54.69
38786;BME280;24535;45.508;12.252;2023-02-14T14:51:05;103007.34;;;12.58;54.68
38786;BME280;24535;45.508;12.252;2023-02-14T14:53:53;103011.41;;;12.67;54.55
38786;BME280;24535;45.508;12.252;2023-02-14T14:56:23;103006.88;;;12.70;54.43
38786;BME280;24535;45.508;12.252;2023-02-14T14:58:49;103006.00;;;12.70;53.97
38786;BME280;24535;45.508;12.252;2023-02-14T15:01:44;103003.44;;;12.68;52.55
38786;BME280;24535;45.508;12.252;2023-02-14T15:06:38;102994.94;;;12.60;53.67
38786;BME280;24535;45.508;12.252;2023-02-14T15:09:15;103001.09;;;12.60;52.91
38786;BME280;24535;45.508;12.252;2023-02-14T15:11:43;103000.28;;;12.58;53.95
38786;BME280;24535;45.508;12.252;2023-02-14T15:14:29;102996.97;;;12.53;54.18
38786;BME280;24535;45.508;12.252;2023-02-14T15:17:03;102993.44;;;12.53;54.00
38786;BME280;24535;45.508;12.252;2023-02-14T15:19:36;102987.41;;;12.49;53.81
38786;BME280;24535;45.508;12.252;2023-02-14T15:22:25;102987.34;;;12.51;53.69
38786;BME280;24535;45.508;12.252;2023-02-14T15:24:51;102987.41;;;12.49;53.65
38786;BME280;24535;45.508;12.252;2023-02-14T15:27:20;102993.63;;;12.48;53.72